LTAC/ESB METAR and TAF weather

Enter ICAO airport designator
Station Type Date Time Source
LTAC METAR 2022/06/27 08:50 UTC NOAA

LTAC 270850Z 30007KT 9999 -SHRA BKN030 BKN080 17/12 Q1015 NOSIG


Station Type Date Time Source
LTAC Decoded METAR 2022/06/27 08:50 UTC NOAA

Ankara / Esenboga, Turkey (LTAC) 40-07N 032-59E 949M
Jun 27, 2022 - 04:50 AM EDT / 2022.06.27 0850 UTC
Wind: from the WNW (300 degrees) at 8 MPH (7 KT):0
Visibility: greater than 7 mile(s):0
Sky conditions: mostly cloudy
Weather: light rain showers
Temperature: 62 F (17 C)
Dew Point: 53 F (12 C)
Relative Humidity: 72%
Pressure (altimeter): 29.97 in. Hg (1015 hPa)
ob: LTAC 270850Z 30007KT 9999 -SHRA BKN030 BKN080 17/12 Q1015 NOSIG
cycle: 9

Station Type Date Time Source
LTAC TAF 2022/06/27 06:03 UTC NOAA

TAF TAF LTAC 270440Z 2706/2806 VRB02KT 9999 BKN035 BKN080
TEMPO 2708/2712 29012KT -SHRA
TEMPO 2712/2716 24012KT -SHRA
TEMPO 2716/2720 SHRA FEW025CB BKN030 BKN080

Example: see airport list